Weather History for Silver City, NM

Change the Weather History Date:

Tuesday, April 29, 2014

  Actual Average (KDMN) Record (KDMN)
Temperature  
Mean Temperature 50 °F 64 °F  
Max Temperature 66 °F 82 °F 93 °F (1948)
Min Temperature 35 °F 46 °F 26 °F (1991)
Degree Days  
Heating Degree Days 14    
Moisture  
Dew Point 4 °F    
Average Humidity 16    
Maximum Humidity 38    
Minimum Humidity 6    
Precipitation  
Precipitation 0.00 in 0.01 in 0.16 in (1957)
Month to date precipitation 0.35  
Year to date precipitation 1.97  
Sea Level Pressure  
Sea Level Pressure 30.10 in    
Wind  
Wind Speed 12 mph (NW)    
Max Wind Speed 26 mph    
Max Gust Speed 31 mph    
Visibility 10 miles    
Events      
T = Trace of Precipitation, MM = Missing Value Source: NWS Daily Summary

Daily Weather History Graph

Daily Weather History Graph

Search for Another Location

Airport:

Trip Planner

Search our weather history database for the weather conditions in past years. The results will help you decide how hot, cold, wet, or windy it might be!

Date:

Astronomy

Apr. 29, 2014 Rise Set
Actual Time 6:27 AM MDT 7:52 PM MDT
Civil Twilight 6:01 AM MDT 8:18 PM MDT
Nautical Twilight 5:30 AM MDT 8:50 PM MDT
Astronomical Twilight 4:57 AM MDT 9:22 PM MDT
Moon 6:47 AM MDT (4/29) 8:34 PM MDT (4/29)
Length of Visible Light 14h 17m
Length of Day
13h 25m
New Moon, 0% of the Moon is Illuminated
Apr 29
New Moon
May 6
First Quarter
May 14
Full
May 21
Last Quarter
May 28
New

Hourly Weather History & Observations

Time (MDT) Temp. Windchill Dew Point Humidity Pressure Visibility Wind Dir Wind Speed Gust Speed Precip Events Conditions
12:15 AM 53.6 °F - 23.0 °F 30% 30.05 in 10.0 mi NW 12.7 mph - N/A   Clear
12:35 AM 51.8 °F - 21.2 °F 30% 30.06 in 10.0 mi NNW 12.7 mph 20.7 mph N/A   Clear
12:55 AM 50.0 °F - 19.4 °F 30% 30.07 in 10.0 mi NNW 11.5 mph - N/A   Clear
1:15 AM 48.2 °F - 17.6 °F 30% 30.07 in 10.0 mi North 12.7 mph - N/A   Clear
1:35 AM 48.2 °F - 15.8 °F 27% 30.08 in 10.0 mi NNW 10.4 mph - N/A   Clear
1:55 AM 48.2 °F - 15.8 °F 27% 30.07 in 10.0 mi NW 10.4 mph - N/A   Clear
2:15 AM 50.0 °F - 14.0 °F 24% 30.07 in 10.0 mi West 9.2 mph - N/A   Clear
2:35 AM 48.2 °F - 17.6 °F 30% 30.08 in 10.0 mi West 8.1 mph - N/A   Clear
2:55 AM 42.8 °F 37.5 °F 15.8 °F 34% 30.08 in 10.0 mi NW 9.2 mph - N/A   Clear
3:15 AM 41.0 °F 36.4 °F 15.8 °F 36% 30.08 in 10.0 mi NW 6.9 mph - N/A   Clear
3:35 AM 41.0 °F 35.2 °F 15.8 °F 36% 30.08 in 10.0 mi WNW 9.2 mph - N/A   Clear
3:55 AM 41.0 °F 34.7 °F 14.0 °F 33% 30.09 in 10.0 mi NW 10.4 mph - N/A   Clear
4:15 AM 39.2 °F 33.6 °F 14.0 °F 36% 30.09 in 10.0 mi North 8.1 mph - N/A   Clear
4:35 AM 35.6 °F 28.0 °F 12.2 °F 38% 30.10 in 10.0 mi NNW 10.4 mph - N/A   Clear
4:55 AM 39.2 °F 33.0 °F 10.4 °F 31% 30.10 in 10.0 mi WNW 9.2 mph - N/A   Clear
5:15 AM 37.4 °F 29.3 °F 10.4 °F 33% 30.10 in 10.0 mi NW 12.7 mph - N/A   Clear
5:35 AM 41.0 °F 33.1 °F 10.4 °F 29% 30.09 in 10.0 mi NNW 15.0 mph - N/A   Clear
5:55 AM 41.0 °F 32.5 °F 6.8 °F 24% 30.09 in 10.0 mi North 17.3 mph - N/A   Clear
6:15 AM 41.0 °F 31.9 °F 6.8 °F 24% 30.10 in 10.0 mi North 19.6 mph - N/A   Clear
6:35 AM 44.6 °F 35.7 °F 6.8 °F 21% 30.09 in 10.0 mi North 24.2 mph - N/A   Clear
6:55 AM 44.6 °F 36.1 °F 5.0 °F 20% 30.09 in 10.0 mi North 21.9 mph 27.6 mph N/A   Clear
7:15 AM 46.4 °F 37.7 °F 5.0 °F 18% 30.10 in 10.0 mi North 26.5 mph 31.1 mph N/A   Clear
7:35 AM 46.4 °F 39.0 °F 3.2 °F 17% 30.12 in 10.0 mi North 19.6 mph 29.9 mph N/A   Clear
7:55 AM 48.2 °F - 3.2 °F 16% 30.14 in 10.0 mi North 20.7 mph 26.5 mph N/A   Clear
8:15 AM 48.2 °F - 3.2 °F 16% 30.14 in 10.0 mi North 23.0 mph 27.6 mph N/A   Clear
8:35 AM 50.0 °F - 1.4 °F 14% 30.15 in 10.0 mi North 19.6 mph 26.5 mph N/A   Clear
8:55 AM 50.0 °F - 1.4 °F 14% 30.15 in 10.0 mi North 19.6 mph 27.6 mph N/A   Clear
9:15 AM 51.8 °F - 1.4 °F 13% 30.16 in 10.0 mi North 20.7 mph - N/A   Clear
9:35 AM 53.6 °F - 1.4 °F 12% 30.16 in 10.0 mi North 12.7 mph 19.6 mph N/A   Clear
9:55 AM 55.4 °F - -0.4 °F 10% 30.16 in 10.0 mi NNW 18.4 mph 27.6 mph N/A   Clear
10:15 AM 53.6 °F - -0.4 °F 11% 30.17 in 10.0 mi NW 12.7 mph 18.4 mph N/A   Clear
10:35 AM 55.4 °F - -0.4 °F 10% 30.16 in 10.0 mi WNW 11.5 mph 19.6 mph N/A   Clear
10:55 AM 55.4 °F - -0.4 °F 10% 30.16 in 10.0 mi West 6.9 mph 17.3 mph N/A   Clear
11:15 AM 57.2 °F - -2.2 °F 9% 30.16 in 10.0 mi WSW 6.9 mph - N/A   Clear
11:35 AM 57.2 °F - -0.4 °F 10% 30.15 in 10.0 mi NW 9.2 mph - N/A   Clear
11:55 AM 59.0 °F - -2.2 °F 8% 30.15 in 10.0 mi WNW 12.7 mph 16.1 mph N/A   Clear
12:15 PM 59.0 °F - -4.0 °F 8% 30.14 in 10.0 mi WNW 8.1 mph - N/A   Clear
12:35 PM 59.0 °F - -2.2 °F 8% 30.13 in 10.0 mi NW 9.2 mph 19.6 mph N/A   Clear
12:55 PM 60.8 °F - -4.0 °F 7% 30.13 in 10.0 mi West 9.2 mph - N/A   Clear
1:15 PM 59.0 °F - -4.0 °F 8% 30.12 in 10.0 mi WSW 3.5 mph - N/A   Clear
1:35 PM 62.6 °F - -2.2 °F 7% 30.11 in 10.0 mi SSW 8.1 mph 16.1 mph N/A   Clear
1:55 PM 62.6 °F - -2.2 °F 7% 30.10 in 10.0 mi ENE 5.8 mph - N/A   Clear
2:15 PM 64.4 °F - -2.2 °F 7% 30.10 in 10.0 mi WSW 8.1 mph 18.4 mph N/A   Clear
2:35 PM 62.6 °F - -2.2 °F 7% 30.10 in 10.0 mi SSW 9.2 mph 17.3 mph N/A   Clear
3:15 PM 64.4 °F - 1.4 °F 8% 30.08 in 10.0 mi SW 10.4 mph 19.6 mph N/A   Clear
3:35 PM 64.4 °F - 1.4 °F 8% 30.08 in 10.0 mi SSW 6.9 mph 17.3 mph N/A   Clear
3:55 PM 66.2 °F - 3.2 °F 8% 30.06 in 10.0 mi South 15.0 mph 20.7 mph N/A   Clear
4:15 PM 66.2 °F - 1.4 °F 8% 30.06 in 10.0 mi SW 8.1 mph - N/A   Clear
4:35 PM 66.2 °F - 1.4 °F 8% 30.05 in 10.0 mi SSW 13.8 mph 17.3 mph N/A   Clear
4:55 PM 66.2 °F - 1.4 °F 8% 30.05 in 10.0 mi SSW 6.9 mph 16.1 mph N/A   Clear
5:15 PM 66.2 °F - -0.4 °F 7% 30.04 in 10.0 mi South 9.2 mph - N/A   Clear
5:35 PM 66.2 °F - -0.4 °F 7% 30.04 in 10.0 mi South 11.5 mph - N/A   Clear
5:55 PM 66.2 °F - -0.4 °F 7% 30.04 in 10.0 mi SSE 9.2 mph - N/A   Clear
6:15 PM 66.2 °F - -2.2 °F 6% 30.04 in 10.0 mi SSE 10.4 mph - N/A   Clear
6:35 PM 66.2 °F - -2.2 °F 6% 30.04 in 10.0 mi West 4.6 mph - N/A   Clear
6:55 PM 64.4 °F - -2.2 °F 7% 30.03 in 10.0 mi West 12.7 mph 17.3 mph N/A   Clear
7:15 PM 64.4 °F - -2.2 °F 7% 30.04 in 10.0 mi NW 6.9 mph - N/A   Clear
7:35 PM 62.6 °F - -2.2 °F 7% 30.04 in 10.0 mi NNW 8.1 mph - N/A   Clear
7:55 PM 57.2 °F - -2.2 °F 9% 30.05 in 10.0 mi NNW 9.2 mph - N/A   Clear
8:15 PM 57.2 °F - 1.4 °F 10% 30.06 in 10.0 mi East 12.7 mph - N/A   Clear
8:35 PM 57.2 °F - 1.4 °F 10% 30.07 in 10.0 mi East 10.4 mph - N/A   Clear
8:55 PM 55.4 °F - 1.4 °F 11% 30.08 in 10.0 mi ESE 12.7 mph - N/A   Clear
9:15 PM 53.6 °F - 1.4 °F 12% 30.09 in 10.0 mi East 12.7 mph - N/A   Clear
9:35 PM 53.6 °F - 1.4 °F 12% 30.10 in 9.0 mi East 12.7 mph - N/A   Clear
9:55 PM 53.6 °F - 1.4 °F 12% 30.11 in 10.0 mi East 13.8 mph - N/A   Clear
10:15 PM 50.0 °F - 5.0 °F 16% 30.12 in 10.0 mi ENE 8.1 mph - N/A   Clear
10:35 PM 48.2 °F - -0.4 °F 13% 30.12 in 10.0 mi ENE 9.2 mph - N/A   Clear
10:55 PM 50.0 °F - -0.4 °F 13% 30.12 in 10.0 mi ENE 10.4 mph - N/A   Clear
11:15 PM 48.2 °F - -0.4 °F 13% 30.13 in 10.0 mi NE 8.1 mph - N/A   Clear
11:35 PM 42.8 °F 40.1 °F -0.4 °F 16% 30.13 in 10.0 mi West 4.6 mph - N/A   Clear
11:55 PM 44.6 °F - -0.4 °F 15% 30.14 in 10.0 mi Calm Calm - N/A   Clear